createdAt,value
2023-02-03T00:02:17.957Z,79.61
2023-02-03T00:04:45.518Z,79.67
2023-02-03T00:07:14.247Z,80.00
2023-02-03T00:09:41.820Z,79.10
2023-02-03T00:12:09.886Z,79.84
2023-02-03T00:14:38.151Z,80.08
2023-02-03T00:17:06.317Z,79.76
2023-02-03T00:19:33.731Z,79.92
2023-02-03T00:22:01.286Z,80.38
2023-02-03T00:24:28.767Z,80.46
2023-02-03T00:26:56.346Z,80.24
2023-02-03T00:29:26.124Z,80.04
2023-02-03T00:31:54.722Z,80.36
2023-02-03T00:34:22.397Z,80.40
2023-02-03T00:36:49.877Z,80.13
2023-02-03T00:39:17.144Z,80.41
2023-02-03T00:41:44.860Z,80.52
2023-02-03T00:44:12.248Z,80.62
2023-02-03T00:46:39.887Z,80.74
2023-02-03T00:49:07.817Z,80.88
2023-02-03T00:51:35.604Z,81.40
2023-02-03T00:54:03.055Z,81.84
2023-02-03T00:56:30.645Z,81.42
2023-02-03T00:58:58.293Z,82.12
2023-02-03T01:01:25.778Z,82.45
2023-02-03T01:03:54.624Z,82.63
2023-02-03T01:06:22.989Z,82.63
2023-02-03T01:08:50.527Z,82.58
2023-02-03T01:11:27.297Z,82.82
2023-02-03T01:13:56.400Z,82.49
2023-02-03T01:16:26.483Z,83.04
2023-02-03T01:18:55.719Z,84.09
2023-02-03T01:21:26.031Z,83.49
2023-02-03T01:23:54.372Z,83.19
2023-02-03T01:26:23.968Z,84.12
2023-02-03T01:28:55.704Z,83.62
2023-02-03T01:31:29.264Z,83.08
2023-02-03T01:33:57.621Z,80.91
2023-02-03T01:36:26.718Z,82.07
2023-02-03T01:38:54.535Z,82.59
2023-02-03T01:41:29.577Z,82.30
2023-02-03T01:43:59.017Z,83.28
2023-02-03T01:46:45.040Z,83.25
2023-02-03T01:49:32.207Z,84.73
2023-02-03T01:52:00.223Z,84.25
2023-02-03T01:54:31.933Z,84.37
2023-02-03T01:57:03.209Z,84.45
2023-02-03T01:59:32.981Z,85.02
2023-02-03T02:02:02.071Z,84.48
2023-02-03T02:04:43.250Z,84.13
2023-02-03T02:07:11.573Z,84.42
2023-02-03T02:09:41.571Z,84.51
2023-02-03T02:12:11.675Z,84.45
2023-02-03T02:14:41.487Z,84.42
2023-02-03T02:17:42.369Z,83.90
2023-02-03T02:20:32.618Z,84.01
2023-02-03T02:23:24.588Z,81.98
2023-02-03T02:26:21.318Z,81.24
2023-02-03T02:29:01.375Z,81.29
2023-02-03T02:31:48.406Z,81.41
2023-02-03T02:34:33.533Z,81.71
2023-02-03T02:37:24.020Z,81.44
2023-02-03T02:39:55.032Z,80.64
2023-02-03T02:42:39.603Z,81.18
2023-02-03T02:45:17.777Z,80.56
2023-02-03T02:47:46.572Z,81.59
2023-02-03T02:50:25.528Z,81.38
2023-02-03T02:52:55.092Z,82.97
2023-02-03T02:55:28.018Z,82.37
2023-02-03T02:58:06.269Z,82.99
2023-02-03T03:00:36.590Z,82.88
2023-02-03T03:03:16.908Z,82.91
2023-02-03T03:05:54.028Z,82.79
2023-02-03T03:08:41.263Z,83.93
2023-02-03T03:11:09.136Z,83.78
2023-02-03T03:13:42.381Z,84.44
2023-02-03T03:16:12.751Z,84.17
2023-02-03T03:19:00.774Z,84.43
2023-02-03T03:21:37.359Z,84.28
2023-02-03T03:24:10.982Z,84.19
2023-02-03T03:26:54.969Z,85.20
2023-02-03T03:29:35.333Z,85.51
2023-02-03T03:32:03.409Z,85.24
2023-02-03T03:34:32.310Z,85.24
2023-02-03T03:37:33.853Z,85.42
2023-02-03T03:40:09.899Z,85.16
2023-02-03T03:42:54.801Z,85.51
2023-02-03T03:45:44.199Z,85.13
2023-02-03T03:48:22.516Z,85.56
2023-02-03T03:50:56.319Z,85.30
2023-02-03T03:53:25.919Z,85.32
2023-02-03T03:55:54.237Z,85.26
2023-02-03T03:58:28.217Z,85.23
2023-02-03T04:01:01.510Z,84.76
2023-02-03T04:03:36.230Z,84.25
2023-02-03T04:06:04.116Z,84.46
2023-02-03T04:08:31.636Z,84.44
2023-02-03T04:10:59.103Z,84.46
2023-02-03T04:13:26.424Z,82.79
2023-02-03T04:15:53.989Z,83.27
2023-02-03T04:18:21.443Z,83.32
2023-02-03T04:20:49.283Z,83.72
2023-02-03T04:23:16.828Z,82.82
2023-02-03T04:25:44.345Z,82.92
2023-02-03T04:28:11.916Z,84.06
2023-02-03T04:30:39.391Z,84.11
2023-02-03T04:33:06.972Z,83.12
2023-02-03T04:35:34.340Z,83.28
2023-02-03T04:38:01.687Z,82.83
2023-02-03T04:40:29.327Z,83.55
2023-02-03T04:42:56.777Z,82.86
2023-02-03T04:45:24.319Z,83.67
2023-02-03T04:47:54.473Z,83.04
2023-02-03T04:50:22.237Z,82.62
2023-02-03T04:52:49.496Z,82.78
2023-02-03T04:55:17.137Z,83.68
2023-02-03T04:57:44.662Z,84.57
2023-02-03T05:00:12.809Z,85.25
2023-02-03T05:02:40.183Z,84.83
2023-02-03T05:05:07.621Z,83.48
2023-02-03T05:07:34.940Z,83.12
2023-02-03T05:10:02.441Z,83.65
2023-02-03T05:12:29.735Z,83.52
2023-02-03T05:14:57.214Z,83.87
2023-02-03T05:17:24.703Z,83.74
2023-02-03T05:19:52.151Z,83.33
2023-02-03T05:22:19.593Z,83.25
2023-02-03T05:24:47.100Z,83.41
2023-02-03T05:27:14.517Z,83.49
2023-02-03T05:29:41.989Z,84.22
2023-02-03T05:32:09.349Z,84.52
2023-02-03T05:34:36.780Z,84.83
2023-02-03T05:37:04.053Z,84.82
2023-02-03T05:39:31.446Z,84.91
2023-02-03T05:41:59.312Z,85.72
2023-02-03T05:44:27.924Z,85.55
2023-02-03T05:46:57.723Z,86.31
2023-02-03T05:49:25.722Z,86.50
2023-02-03T05:51:54.319Z,86.79
2023-02-03T05:54:22.347Z,85.82
2023-02-03T05:56:50.096Z,86.48
2023-02-03T05:59:17.706Z,87.32
2023-02-03T06:01:45.130Z,87.22
2023-02-03T06:04:12.478Z,87.01
2023-02-03T06:06:39.874Z,86.86
2023-02-03T06:09:08.924Z,86.79
2023-02-03T06:11:37.016Z,87.40
2023-02-03T06:14:05.207Z,87.92
2023-02-03T06:16:32.673Z,87.91
2023-02-03T06:19:01.145Z,87.69
2023-02-03T06:21:28.741Z,87.49
2023-02-03T06:23:56.813Z,87.79
2023-02-03T06:26:25.530Z,87.01
2023-02-03T06:28:53.093Z,86.87
2023-02-03T06:31:20.793Z,85.92
2023-02-03T06:33:48.424Z,85.74
2023-02-03T06:36:15.870Z,85.52
2023-02-03T06:38:43.399Z,85.88
2023-02-03T06:41:10.867Z,86.90
2023-02-03T06:43:38.274Z,86.55
2023-02-03T06:46:05.623Z,86.46
2023-02-03T06:48:33.057Z,86.50
2023-02-03T06:51:00.439Z,86.77
2023-02-03T06:53:27.966Z,86.60
2023-02-03T06:55:55.386Z,86.92
2023-02-03T06:58:22.897Z,87.93
2023-02-03T07:00:51.601Z,86.94
2023-02-03T07:03:19.157Z,86.92
2023-02-03T07:05:46.509Z,87.21
2023-02-03T07:08:13.844Z,86.84
2023-02-03T07:10:41.985Z,87.25
2023-02-03T07:13:09.598Z,87.33
2023-02-03T07:15:37.175Z,87.42
2023-02-03T07:18:04.773Z,87.57
2023-02-03T07:20:33.088Z,88.09
2023-02-03T07:23:00.874Z,88.54
2023-02-03T07:25:28.436Z,88.22
2023-02-03T07:27:55.910Z,88.72
2023-02-03T07:30:23.221Z,89.00
2023-02-03T07:32:52.233Z,89.69
2023-02-03T07:35:20.200Z,89.83
2023-02-03T07:37:47.773Z,89.74
2023-02-03T07:40:17.508Z,90.21
2023-02-03T07:42:49.091Z,89.88
2023-02-03T07:45:18.413Z,89.92
2023-02-03T07:47:45.903Z,90.85
2023-02-03T07:50:13.662Z,90.39
2023-02-03T07:52:41.238Z,90.66
2023-02-03T07:55:09.679Z,90.58
2023-02-03T07:57:37.442Z,91.08
2023-02-03T08:00:05.718Z,90.54
2023-02-03T08:02:40.109Z,90.37
2023-02-03T08:05:07.897Z,90.28
2023-02-03T08:07:36.074Z,90.79
2023-02-03T08:10:05.148Z,90.39
2023-02-03T08:12:32.647Z,90.40
2023-02-03T08:15:00.189Z,90.08
2023-02-03T08:17:27.978Z,90.09
2023-02-03T08:19:55.714Z,89.98
2023-02-03T08:22:23.180Z,89.61
2023-02-03T08:24:50.962Z,89.57
2023-02-03T08:27:21.225Z,89.33
2023-02-03T08:29:49.363Z,89.67
2023-02-03T08:32:21.889Z,89.51
2023-02-03T08:34:50.171Z,89.08
2023-02-03T08:37:20.666Z,88.68
2023-02-03T08:39:48.599Z,88.23
2023-02-03T08:42:16.778Z,88.03
2023-02-03T08:44:44.642Z,87.25
2023-02-03T08:47:12.585Z,86.93
2023-02-03T08:49:40.269Z,87.26
2023-02-03T08:52:11.083Z,87.37
2023-02-03T08:54:39.033Z,87.29
2023-02-03T08:57:07.485Z,86.73
2023-02-03T08:59:41.220Z,85.81
2023-02-03T09:02:14.351Z,85.27
2023-02-03T09:04:41.936Z,85.07
2023-02-03T09:07:09.590Z,84.13
2023-02-03T09:09:37.682Z,83.25
2023-02-03T09:12:08.066Z,81.44
2023-02-03T09:14:35.598Z,80.80
2023-02-03T09:17:05.092Z,79.74
2023-02-03T09:19:35.448Z,79.59
2023-02-03T09:22:04.966Z,78.88
2023-02-03T09:24:32.509Z,78.89
2023-02-03T09:27:01.609Z,79.13
2023-02-03T09:29:29.057Z,79.05
2023-02-03T09:31:56.553Z,79.89
2023-02-03T09:34:24.192Z,80.46
2023-02-03T09:36:51.920Z,81.03
2023-02-03T09:39:19.620Z,81.16
2023-02-03T09:42:00.999Z,80.53
2023-02-03T09:44:46.301Z,79.87
2023-02-03T09:47:22.164Z,80.29
2023-02-03T09:49:58.334Z,80.80
2023-02-03T09:52:29.439Z,80.38
2023-02-03T09:54:57.082Z,79.98
2023-02-03T09:57:31.301Z,80.00
2023-02-03T10:00:02.483Z,80.16
2023-02-03T10:03:10.495Z,79.26
2023-02-03T10:05:56.816Z,78.23
2023-02-03T10:08:54.951Z,77.69
2023-02-03T10:11:28.187Z,76.56
2023-02-03T10:14:27.644Z,75.25
2023-02-03T10:17:09.888Z,74.57
2023-02-03T10:19:51.767Z,73.69
2023-02-03T10:22:24.289Z,73.14
2023-02-03T10:25:03.663Z,72.85
2023-02-03T10:27:33.477Z,72.91
2023-02-03T10:30:06.914Z,73.06
2023-02-03T10:32:36.097Z,72.87
2023-02-03T10:35:05.938Z,73.20
2023-02-03T10:37:42.060Z,73.14
2023-02-03T10:40:14.093Z,73.77
2023-02-03T10:43:02.302Z,74.04
2023-02-03T10:45:35.140Z,73.79
2023-02-03T10:48:04.613Z,74.47
2023-02-03T10:50:32.220Z,74.53
2023-02-03T10:53:18.435Z,74.83
2023-02-03T10:55:49.010Z,73.67
2023-02-03T10:58:22.000Z,72.97
2023-02-03T11:01:04.440Z,72.37
2023-02-03T11:03:32.457Z,72.85
2023-02-03T11:06:11.775Z,72.83
2023-02-03T11:08:49.817Z,72.96
2023-02-03T11:11:26.501Z,72.98
2023-02-03T11:14:17.185Z,73.13
2023-02-03T11:16:47.394Z,73.76
2023-02-03T11:19:18.701Z,73.93
2023-02-03T11:21:52.670Z,73.29
2023-02-03T11:24:24.280Z,73.57
2023-02-03T11:26:55.742Z,72.84
2023-02-03T11:29:30.844Z,72.87
2023-02-03T11:32:02.579Z,72.41
2023-02-03T11:34:34.573Z,72.55
2023-02-03T11:37:27.103Z,72.92
2023-02-03T11:40:12.714Z,73.54
2023-02-03T11:42:43.728Z,73.86
2023-02-03T11:45:15.441Z,73.81
2023-02-03T11:47:57.369Z,74.02
2023-02-03T11:50:35.175Z,72.77
2023-02-03T11:53:21.320Z,72.18
2023-02-03T11:55:56.536Z,71.62
2023-02-03T11:58:32.982Z,69.83
2023-02-03T12:01:26.130Z,69.19
2023-02-03T12:03:53.785Z,68.03
2023-02-03T12:07:15.453Z,67.42
2023-02-03T12:09:58.106Z,66.97
2023-02-03T12:12:52.121Z,66.49
2023-02-03T12:15:40.842Z,66.00
2023-02-03T12:18:32.113Z,64.46
2023-02-03T12:21:08.360Z,63.19
2023-02-03T12:24:03.078Z,63.72
2023-02-03T12:26:41.775Z,65.38
2023-02-03T12:29:22.644Z,66.91
2023-02-03T12:32:02.609Z,67.53
2023-02-03T12:34:53.820Z,68.43
2023-02-03T12:37:30.568Z,69.98
2023-02-03T12:40:05.211Z,70.71
2023-02-03T12:42:39.637Z,73.13
2023-02-03T12:45:16.511Z,73.44
2023-02-03T12:47:47.614Z,74.40
2023-02-03T12:50:34.744Z,75.77
2023-02-03T12:53:32.213Z,77.64
2023-02-03T12:56:30.116Z,78.92
2023-02-03T12:59:06.658Z,79.63
2023-02-03T13:01:42.937Z,79.70
2023-02-03T13:04:22.570Z,79.82
2023-02-03T13:07:09.966Z,80.15
2023-02-03T13:09:57.663Z,80.75
2023-02-03T13:12:32.382Z,81.79
2023-02-03T13:15:19.419Z,81.81
2023-02-03T13:17:57.801Z,82.71
2023-02-03T13:20:31.403Z,82.91
2023-02-03T13:22:59.071Z,83.29
2023-02-03T13:25:54.235Z,84.42
2023-02-03T13:28:45.165Z,84.35
2023-02-03T13:31:18.095Z,85.05
2023-02-03T13:34:27.140Z,85.03
2023-02-03T13:37:03.736Z,84.83
2023-02-03T13:40:01.889Z,86.19
2023-02-03T13:42:33.516Z,87.00
2023-02-03T13:45:25.772Z,86.92
2023-02-03T13:47:57.524Z,85.38
2023-02-03T13:50:31.497Z,84.28
2023-02-03T13:53:09.296Z,83.00
2023-02-03T13:55:44.545Z,82.39
2023-02-03T13:58:31.444Z,82.28
2023-02-03T14:01:00.742Z,81.98
2023-02-03T14:03:27.966Z,81.93
2023-02-03T14:05:56.675Z,80.73
2023-02-03T14:08:27.753Z,81.30
2023-02-03T14:11:32.630Z,81.87
2023-02-03T14:14:09.741Z,82.39
2023-02-03T14:16:38.110Z,82.93
2023-02-03T14:19:09.626Z,82.63
2023-02-03T14:21:43.153Z,82.89
2023-02-03T14:24:12.633Z,83.21
2023-02-03T14:26:44.998Z,82.84
2023-02-03T14:29:35.160Z,83.03
2023-02-03T14:32:13.272Z,82.69
2023-02-03T14:34:45.864Z,82.61
2023-02-03T14:37:28.980Z,82.42
2023-02-03T14:40:33.950Z,82.46
2023-02-03T14:43:19.664Z,80.97
2023-02-03T14:46:10.363Z,79.89
2023-02-03T14:48:50.394Z,80.00
2023-02-03T14:51:45.963Z,80.21
2023-02-03T14:54:33.253Z,80.68
2023-02-03T14:57:23.436Z,80.84
2023-02-03T15:00:03.526Z,79.99
2023-02-03T15:02:33.538Z,80.01
2023-02-03T15:05:13.772Z,79.36
2023-02-03T15:07:48.371Z,78.67
2023-02-03T15:10:20.902Z,79.24
2023-02-03T15:12:51.381Z,80.16
2023-02-03T15:15:29.311Z,79.79
2023-02-03T15:18:00.000Z,80.55
2023-02-03T15:20:35.550Z,81.02
2023-02-03T15:23:03.399Z,81.38
2023-02-03T15:25:33.065Z,81.16
2023-02-03T15:28:19.486Z,81.58
2023-02-03T15:30:52.891Z,81.66
2023-02-03T15:33:22.004Z,81.21
2023-02-03T15:35:59.733Z,81.84
2023-02-03T15:38:36.806Z,81.90
2023-02-03T15:41:07.726Z,80.63
2023-02-03T15:43:41.942Z,81.49
2023-02-03T15:46:18.010Z,82.11
2023-02-03T15:48:53.065Z,82.19
2023-02-03T15:51:45.547Z,82.11
2023-02-03T15:54:15.963Z,82.59
2023-02-03T15:56:56.955Z,83.40
2023-02-03T15:59:26.455Z,82.52
2023-02-03T16:01:54.562Z,83.23
2023-02-03T16:04:24.223Z,83.63
2023-02-03T16:06:54.406Z,83.68
2023-02-03T16:09:34.155Z,83.81
2023-02-03T16:12:25.977Z,83.93
2023-02-03T16:14:55.572Z,84.41
2023-02-03T16:17:37.145Z,84.68
2023-02-03T16:20:13.514Z,85.77
2023-02-03T16:22:47.421Z,85.56
2023-02-03T16:25:19.843Z,85.45
2023-02-03T16:28:15.387Z,84.77
2023-02-03T16:31:17.799Z,85.42
2023-02-03T16:34:05.879Z,85.83
2023-02-03T16:36:52.248Z,86.80
2023-02-03T16:39:38.636Z,87.96
2023-02-03T16:42:39.127Z,88.86
2023-02-03T16:45:33.465Z,88.76
2023-02-03T16:48:19.658Z,89.52
2023-02-03T16:50:58.932Z,90.03
2023-02-03T16:53:30.418Z,89.62
2023-02-03T16:56:01.279Z,89.67
2023-02-03T16:58:29.021Z,89.54
2023-02-03T17:00:59.641Z,90.65
2023-02-03T17:03:29.008Z,91.52
2023-02-03T17:05:57.509Z,91.70
2023-02-03T17:08:26.405Z,92.39
2023-02-03T17:10:54.217Z,92.98
2023-02-03T17:13:24.560Z,91.78
2023-02-03T17:15:53.044Z,92.07
2023-02-03T17:18:21.414Z,92.51
2023-02-03T17:20:48.902Z,93.33
2023-02-03T17:23:16.923Z,92.69
2023-02-03T17:25:47.123Z,92.88
2023-02-03T17:28:15.116Z,93.06
2023-02-03T17:30:42.814Z,92.07
2023-02-03T17:33:14.734Z,92.30
2023-02-03T17:35:44.138Z,92.87
2023-02-03T17:38:14.051Z,93.03
2023-02-03T17:54:33.536Z,91.75
2023-02-03T17:57:01.209Z,90.48
2023-02-03T17:59:28.774Z,90.36
2023-02-03T18:01:56.169Z,90.22
2023-02-03T18:04:23.629Z,89.71
2023-02-03T18:06:50.940Z,87.30
2023-02-03T18:09:18.730Z,87.35
2023-02-03T18:11:46.622Z,87.75
2023-02-03T18:14:16.521Z,88.21
2023-02-03T18:16:44.631Z,88.70
2023-02-03T18:19:16.202Z,89.61
2023-02-03T18:21:44.699Z,88.81
2023-02-03T18:24:13.443Z,88.69
2023-02-03T18:26:52.047Z,88.00
2023-02-03T18:29:20.326Z,87.93
2023-02-03T18:31:48.389Z,88.76
2023-02-03T18:34:16.768Z,89.08
2023-02-03T18:36:45.076Z,90.14
2023-02-03T18:39:14.703Z,89.94
2023-02-03T18:41:42.565Z,90.14
2023-02-03T18:44:10.100Z,90.53
2023-02-03T18:46:37.427Z,90.30
2023-02-03T18:49:09.374Z,89.88
2023-02-03T18:51:37.124Z,89.72
2023-02-03T18:54:04.707Z,84.18
2023-02-03T18:56:35.739Z,81.16
2023-02-03T18:59:10.466Z,80.50
2023-02-03T19:01:39.228Z,82.36
2023-02-03T19:04:07.176Z,83.03
2023-02-03T19:06:35.997Z,83.68
2023-02-03T19:09:05.491Z,84.09
2023-02-03T19:11:33.997Z,84.50
2023-02-03T19:14:01.541Z,83.88
2023-02-03T19:16:29.138Z,83.91
2023-02-03T19:18:56.707Z,84.19
2023-02-03T19:21:24.302Z,84.02
2023-02-03T19:23:51.902Z,84.55
2023-02-03T19:26:19.498Z,84.36
2023-02-03T19:28:47.190Z,84.85
2023-02-03T19:31:15.829Z,85.50
2023-02-03T19:33:43.549Z,85.93
2023-02-03T19:36:11.699Z,86.42
2023-02-03T19:38:39.119Z,85.91
2023-02-03T19:41:08.121Z,86.01
2023-02-03T19:43:35.603Z,86.18
2023-02-03T19:46:03.402Z,87.02
2023-02-03T19:48:30.896Z,87.36
2023-02-03T19:50:58.347Z,87.48
2023-02-03T19:53:25.816Z,86.51
2023-02-03T19:55:53.421Z,87.73
2023-02-03T19:58:21.157Z,87.95
2023-02-03T20:00:48.745Z,86.74
2023-02-03T20:03:18.217Z,85.61
2023-02-03T20:05:46.825Z,85.79
2023-02-03T20:08:15.765Z,86.86
2023-02-03T20:10:45.460Z,86.88
2023-02-03T20:13:13.742Z,86.31
2023-02-03T20:15:42.077Z,86.76
2023-02-03T20:18:09.580Z,87.65
2023-02-03T20:20:37.354Z,87.39
2023-02-03T20:23:04.853Z,87.20
2023-02-03T20:25:32.518Z,87.30
2023-02-03T20:28:02.650Z,87.37
2023-02-03T20:30:30.674Z,87.82
2023-02-03T20:32:58.682Z,87.72
2023-02-03T20:35:26.578Z,87.81
2023-02-03T20:37:54.013Z,88.39
2023-02-03T20:40:23.544Z,89.21
2023-02-03T20:42:52.918Z,89.66
2023-02-03T20:45:22.854Z,90.43
2023-02-03T20:47:51.689Z,90.35
2023-02-03T20:50:25.168Z,90.61
2023-02-03T20:52:56.661Z,89.39
2023-02-03T20:55:24.171Z,88.39
2023-02-03T20:57:54.304Z,86.40
2023-02-03T21:00:25.010Z,85.58
2023-02-03T21:03:11.954Z,85.49
2023-02-03T21:05:40.800Z,83.69
2023-02-03T21:08:19.778Z,83.59
2023-02-03T21:10:48.772Z,84.02
2023-02-03T21:13:29.365Z,84.79
2023-02-03T21:16:04.769Z,83.90
2023-02-03T21:18:38.778Z,84.55
2023-02-03T21:21:15.447Z,84.44
2023-02-03T21:23:47.329Z,84.48
2023-02-03T21:26:35.760Z,83.98
2023-02-03T21:29:03.409Z,85.14
2023-02-03T21:31:35.242Z,85.29
2023-02-03T21:34:04.920Z,83.15
2023-02-03T21:36:37.920Z,82.75
2023-02-03T21:39:24.968Z,81.84
2023-02-03T21:41:52.526Z,82.79
2023-02-03T21:44:32.936Z,83.17
2023-02-03T21:47:05.254Z,82.40
2023-02-03T21:49:35.754Z,81.56
2023-02-03T21:52:03.827Z,80.35
2023-02-03T21:54:34.475Z,81.06
2023-02-03T21:57:02.036Z,81.22
2023-02-03T21:59:38.723Z,81.92
2023-02-03T22:02:39.257Z,81.94
2023-02-03T22:05:15.425Z,79.81
2023-02-03T22:07:43.052Z,80.54
2023-02-03T22:10:10.427Z,80.97
2023-02-03T22:12:37.927Z,81.17
2023-02-03T22:15:05.343Z,80.77
2023-02-03T22:17:32.742Z,80.93
2023-02-03T22:20:00.128Z,81.12
2023-02-03T22:22:27.559Z,81.09
2023-02-03T22:24:54.930Z,81.53
2023-02-03T22:27:25.221Z,81.16
2023-02-03T22:29:56.449Z,81.59
2023-02-03T22:32:24.166Z,81.58
2023-02-03T22:34:51.665Z,82.12
2023-02-03T22:37:19.112Z,82.17
2023-02-03T22:39:46.331Z,82.23
2023-02-03T22:42:14.478Z,82.22
2023-02-03T22:44:42.050Z,82.37
2023-02-03T22:47:09.459Z,82.57
2023-02-03T22:49:36.690Z,82.15
2023-02-03T22:52:04.118Z,80.98
2023-02-03T22:54:31.863Z,80.47
2023-02-03T22:56:59.465Z,80.57
2023-02-03T22:59:26.943Z,80.92
2023-02-03T23:01:54.588Z,81.72
2023-02-03T23:04:23.053Z,82.11
2023-02-03T23:06:50.687Z,82.00
2023-02-03T23:09:18.437Z,81.83
2023-02-03T23:11:45.943Z,82.85
2023-02-03T23:14:13.962Z,82.10
2023-02-03T23:16:41.438Z,82.31
2023-02-03T23:19:08.676Z,82.38
2023-02-03T23:21:36.043Z,82.60
2023-02-03T23:24:03.358Z,82.88
2023-02-03T23:26:30.889Z,82.73
2023-02-03T23:28:58.378Z,83.09
2023-02-03T23:31:26.039Z,82.93
2023-02-03T23:34:12.048Z,82.60
2023-02-03T23:36:39.522Z,82.43
2023-02-03T23:39:07.425Z,82.51
2023-02-03T23:41:34.808Z,82.32
2023-02-03T23:44:02.071Z,81.76
2023-02-03T23:46:29.552Z,81.82
2023-02-03T23:48:57.109Z,81.02
2023-02-03T23:51:24.741Z,81.46
2023-02-03T23:53:52.148Z,81.12
2023-02-03T23:56:19.723Z,81.80
2023-02-03T23:58:47.058Z,81.85
